Time;durP1;ratioP1;P1;durP2;ratioP2;P2;SDS_P1;SDS_P2;PMS_P1;PMS_P2;Temp;Humidity;BMP_temperature;BMP_pressure;BME280_temperature;BME280_humidity;BME280_pressure;Samples;Min_cycle;Max_cycle;Signal;HPM_P1;HPM_P2
2022/01/25 00:08:54;;;;;;;10.32;6.43;;;;;;;19.82;nan;102193.72;20379515;28;99394;-68
2022/01/25 00:29:28;;;;;;;10.35;6.38;;;;;;;19.75;nan;102189.63;20317909;28;98419;-67
2022/01/25 00:39:31;;;;;;;10.52;6.63;;;;;;;19.73;nan;102182.72;20370936;28;101882;-68
2022/01/25 00:49:36;;;;;;;8.87;6.53;;;;;;;19.71;nan;102185.41;20319930;28;97752;-67
2022/01/25 00:59:40;;;;;;;10.88;7.15;;;;;;;19.69;nan;102182.00;20372035;28;101938;-68
2022/01/25 01:09:45;;;;;;;10.55;7.07;;;;;;;19.72;nan;102170.50;20360691;28;99750;-68
2022/01/25 01:50:36;;;;;;;12.70;8.07;;;;;;;19.65;nan;102112.09;20387815;28;101318;-68
2022/01/25 02:00:41;;;;;;;11.20;6.95;;;;;;;19.61;nan;102097.38;20408641;28;102362;-68
2022/01/25 02:10:43;;;;;;;10.77;7.53;;;;;;;19.61;nan;102094.75;20394873;28;99161;-68
2022/01/25 02:31:05;;;;;;;11.95;7.65;;;;;;;19.59;nan;102072.94;20386164;28;100003;-67
2022/01/25 02:41:07;;;;;;;11.52;6.75;;;;;;;19.58;nan;102065.97;20387208;28;98329;-68
2022/01/25 02:51:08;;;;;;;10.27;6.97;;;;;;;19.57;nan;102043.25;20388823;28;100503;-68
2022/01/25 03:01:10;;;;;;;9.90;7.10;;;;;;;19.59;nan;102041.41;20386270;28;101459;-67
2022/01/25 03:11:11;;;;;;;10.32;7.10;;;;;;;19.57;nan;102032.75;20386648;28;98747;-67
2022/01/25 03:21:35;;;;;;;8.98;6.35;;;;;;;19.58;nan;102029.19;20385348;28;99029;-68
2022/01/25 03:31:40;;;;;;;10.90;6.82;;;;;;;19.57;nan;102012.56;20384098;28;99331;-67
2022/01/25 03:41:41;;;;;;;11.65;7.15;;;;;;;19.55;nan;102011.78;20388178;28;99573;-68
2022/01/25 03:51:42;;;;;;;10.35;7.18;;;;;;;19.56;nan;101994.25;20384366;28;97689;-68
2022/01/25 04:01:51;;;;;;;9.98;6.70;;;;;;;19.54;nan;101982.97;20388869;28;101794;-68
2022/01/25 04:11:51;;;;;;;9.85;6.72;;;;;;;19.52;nan;101970.72;20379381;28;101831;-68
2022/01/25 04:32:13;;;;;;;8.82;6.35;;;;;;;19.51;nan;101939.28;20386721;28;99573;-68
2022/01/25 04:52:42;;;;;;;8.80;6.50;;;;;;;19.51;nan;101920.91;20382468;28;100239;-67
2022/01/25 05:02:52;;;;;;;8.00;5.88;;;;;;;19.52;nan;101915.56;20377251;28;100161;-68
2022/01/25 05:13:09;;;;;;;8.68;5.90;;;;;;;19.57;nan;101885.63;20377941;28;101102;-67
2022/01/25 05:23:10;;;;;;;10.30;5.68;;;;;;;19.74;nan;101883.03;20373565;28;100259;-67
2022/01/25 05:33:11;;;;;;;9.32;5.40;;;;;;;19.93;nan;101888.31;20375198;28;100417;-68
2022/01/25 05:53:17;;;;;;;11.63;5.60;;;;;;;20.19;nan;101874.78;20396384;28;98896;-66
2022/01/25 06:03:18;;;;;;;7.40;5.50;;;;;;;20.26;nan;101892.84;20417462;28;99379;-67
2022/01/25 06:13:19;;;;;;;8.55;5.38;;;;;;;20.34;nan;101881.91;20426551;28;98686;-67
2022/01/25 06:23:19;;;;;;;11.23;6.63;;;;;;;20.23;nan;101863.19;20415707;28;98118;-66
2022/01/25 06:33:21;;;;;;;11.65;6.70;;;;;;;20.44;nan;101862.09;20420136;28;101710;-66
2022/01/25 06:43:22;;;;;;;15.30;6.13;;;;;;;20.52;nan;101853.84;20394282;28;100456;-66
2022/01/25 06:53:22;;;;;;;15.27;8.00;;;;;;;20.35;nan;101867.84;20389352;28;102223;-65
2022/01/25 07:03:23;;;;;;;11.93;6.63;;;;;;;20.47;nan;101850.59;20402883;28;101632;-65
2022/01/25 07:13:24;;;;;;;17.85;6.53;;;;;;;20.55;nan;101840.50;20403665;28;98876;-64
2022/01/25 07:23:25;;;;;;;20.35;6.85;;;;;;;20.60;nan;101851.66;20397285;28;97811;-67
2022/01/25 07:33:25;;;;;;;11.18;6.30;;;;;;;20.58;nan;101855.28;20396703;28;97797;-66
2022/01/25 07:43:26;;;;;;;10.38;6.35;;;;;;;20.51;nan;101861.78;20396973;28;101543;-66
2022/01/25 07:53:26;;;;;;;16.52;6.63;;;;;;;20.51;nan;101859.16;20400663;28;97813;-66
2022/01/25 08:03:27;;;;;;;12.55;6.60;;;;;;;20.55;nan;101848.41;20400362;28;100495;-66
2022/01/25 08:13:29;;;;;;;14.82;6.90;;;;;;;20.56;nan;101838.75;20398867;28;102590;-66
2022/01/25 08:23:30;;;;;;;12.83;6.77;;;;;;;20.58;nan;101821.94;20401262;28;103717;-66
2022/01/25 08:33:32;;;;;;;11.32;6.63;;;;;;;20.61;nan;101823.56;20395368;28;98908;-67
2022/01/25 08:43:34;;;;;;;12.88;7.18;;;;;;;20.76;nan;101821.91;20385197;28;106639;-66
2022/01/25 08:53:35;;;;;;;17.20;7.50;;;;;;;20.86;nan;101814.38;20391994;28;101470;-66
2022/01/25 09:03:36;;;;;;;18.48;7.53;;;;;;;20.91;nan;101825.50;20392105;28;97467;-66
2022/01/25 09:13:38;;;;;;;26.90;7.78;;;;;;;20.84;nan;101817.09;20391860;28;101406;-67
2022/01/25 09:23:43;;;;;;;22.10;7.95;;;;;;;20.95;nan;101812.09;20387721;28;103032;-66
2022/01/25 09:33:46;;;;;;;14.27;8.20;;;;;;;20.89;nan;101798.44;20393140;28;101407;-66
2022/01/25 09:43:47;;;;;;;25.17;11.13;;;;;;;20.58;nan;101785.09;20399952;28;98279;-67
2022/01/25 09:53:48;;;;;;;19.13;9.43;;;;;;;20.79;nan;101780.50;20389175;28;99701;-66
2022/01/25 10:03:48;;;;;;;18.45;10.85;;;;;;;20.76;nan;101762.25;20403850;28;99025;-68
